createdAt,value
2022-08-02T03:44:58.815Z,21.66
2022-08-02T03:48:03.406Z,21.66
2022-08-02T03:51:26.646Z,21.36
2022-08-02T03:54:34.774Z,21.44
2022-08-02T03:57:48.289Z,21.50
2022-08-02T04:00:53.636Z,21.65
2022-08-02T04:03:56.326Z,21.69
2022-08-02T04:06:58.639Z,21.69
2022-08-02T04:10:02.648Z,21.78
2022-08-02T04:13:05.445Z,21.84
2022-08-02T04:16:18.461Z,21.91
2022-08-02T04:19:30.516Z,21.94
2022-08-02T04:22:45.745Z,21.93
2022-08-02T04:25:48.573Z,22.05
2022-08-02T04:28:54.690Z,22.16
2022-08-02T04:31:57.474Z,22.30
2022-08-02T04:35:18.703Z,22.74
2022-08-02T04:38:23.485Z,22.70
2022-08-02T04:41:44.019Z,22.60
2022-08-02T04:44:46.796Z,22.78
2022-08-02T04:48:03.287Z,22.85
2022-08-02T04:51:06.861Z,22.94
2022-08-02T04:54:10.698Z,23.09
2022-08-02T04:57:31.628Z,23.28
2022-08-02T05:00:35.147Z,23.33
2022-08-02T05:03:37.707Z,23.40
2022-08-02T05:06:40.281Z,23.44
2022-08-02T05:09:42.703Z,23.49
2022-08-02T05:12:45.418Z,23.54
2022-08-02T05:15:51.438Z,23.70
2022-08-02T05:18:54.028Z,23.74
2022-08-02T05:21:56.478Z,23.85
2022-08-02T05:24:59.089Z,23.97
2022-08-02T05:28:01.434Z,23.82
2022-08-02T05:31:04.230Z,23.91
2022-08-02T05:34:12.869Z,24.06
2022-08-02T05:37:15.491Z,24.08
2022-08-02T05:40:25.630Z,24.21
2022-08-02T05:43:28.705Z,24.24
2022-08-02T05:46:31.447Z,24.26
2022-08-02T05:49:34.164Z,24.37
2022-08-02T05:52:48.720Z,24.46
2022-08-02T05:56:24.375Z,24.57
2022-08-02T05:59:32.416Z,24.72
2022-08-02T06:02:41.275Z,24.97
2022-08-02T06:05:58.445Z,24.99
2022-08-02T06:09:04.183Z,25.09
2022-08-02T06:12:11.714Z,25.20
2022-08-02T06:15:16.954Z,25.22
2022-08-02T06:18:20.076Z,25.34
2022-08-02T06:22:29.704Z,25.30
2022-08-02T06:24:56.662Z,25.27
2022-08-02T06:28:01.100Z,25.31
2022-08-02T06:31:06.631Z,25.54
2022-08-02T06:34:08.979Z,25.67
2022-08-02T06:37:26.302Z,25.78
2022-08-02T06:40:41.179Z,26.02
2022-08-02T06:43:54.153Z,26.12
2022-08-02T06:47:12.126Z,26.11
2022-08-02T06:50:15.849Z,26.23
2022-08-02T06:53:18.505Z,26.28
2022-08-02T06:56:21.751Z,26.41
2022-08-02T06:59:24.314Z,26.46
2022-08-02T07:02:27.278Z,26.65
2022-08-02T07:05:29.697Z,26.79
2022-08-02T07:08:32.875Z,26.93
2022-08-02T07:11:35.207Z,26.99
2022-08-02T07:14:37.838Z,27.02
2022-08-02T07:17:40.180Z,26.91
2022-08-02T07:20:43.476Z,26.90
2022-08-02T07:23:45.940Z,27.06
2022-08-02T07:27:10.058Z,27.04
2022-08-02T07:30:12.060Z,27.14
2022-08-02T07:33:37.767Z,27.30
2022-08-02T07:36:37.279Z,27.51
2022-08-02T07:39:41.021Z,27.58
2022-08-02T07:42:54.534Z,27.62
2022-08-02T07:46:01.082Z,27.46
2022-08-02T07:49:04.582Z,27.37
2022-08-02T07:52:07.388Z,27.56
2022-08-02T07:55:11.273Z,27.72
2022-08-02T07:58:14.079Z,27.85
2022-08-02T08:01:17.038Z,28.11
2022-08-02T08:04:20.063Z,28.24
2022-08-02T08:07:23.159Z,28.26
2022-08-02T08:10:26.454Z,28.46
2022-08-02T08:13:28.829Z,28.60
2022-08-02T08:16:31.395Z,28.94
2022-08-02T08:19:50.908Z,29.01
2022-08-02T08:22:54.665Z,29.23
2022-08-02T08:25:57.149Z,29.44
2022-08-02T08:29:00.553Z,29.50
2022-08-02T08:32:02.975Z,29.62
2022-08-02T08:35:06.949Z,29.76
2022-08-02T08:38:09.592Z,29.94
2022-08-02T08:41:12.395Z,29.46
2022-08-02T08:44:14.782Z,29.52
2022-08-02T08:47:17.850Z,29.83
2022-08-02T08:50:25.814Z,30.04
2022-08-02T08:53:36.860Z,30.14
2022-08-02T08:56:40.598Z,30.08
2022-08-02T08:59:45.895Z,29.91
2022-08-02T09:02:49.293Z,29.97
2022-08-02T09:05:52.090Z,29.95
2022-08-02T09:08:54.366Z,30.17
2022-08-02T09:12:14.411Z,30.26
2022-08-02T09:15:24.957Z,30.53
2022-08-02T09:18:39.706Z,30.81
2022-08-02T09:21:42.003Z,31.31
2022-08-02T09:24:47.300Z,31.78
2022-08-02T09:27:50.352Z,31.88
2022-08-02T09:30:57.042Z,31.94
2022-08-02T09:34:00.498Z,31.52
2022-08-02T09:37:03.597Z,31.39
2022-08-02T09:40:10.271Z,31.01
2022-08-02T09:43:13.006Z,31.13
2022-08-02T09:46:22.850Z,31.44
2022-08-02T09:49:27.293Z,31.59
2022-08-02T09:52:36.995Z,31.70
2022-08-02T09:55:56.279Z,31.89
2022-08-02T09:59:07.273Z,32.10
2022-08-02T10:02:17.515Z,31.92
2022-08-02T10:05:21.303Z,32.03
2022-08-02T10:08:41.230Z,31.97
2022-08-02T10:11:44.246Z,32.18
2022-08-02T10:14:49.549Z,32.46
2022-08-02T10:17:52.597Z,32.41
2022-08-02T10:20:58.074Z,32.32
2022-08-02T10:24:07.024Z,32.28
2022-08-02T10:27:20.686Z,31.95
2022-08-02T10:30:26.938Z,32.27
2022-08-02T10:33:30.751Z,32.31
2022-08-02T10:36:35.001Z,32.50
2022-08-02T10:39:42.654Z,32.60
2022-08-02T10:42:48.270Z,32.72
2022-08-02T10:45:50.932Z,32.85
2022-08-02T10:49:23.946Z,33.06
2022-08-02T10:52:28.417Z,33.15
2022-08-02T10:55:45.285Z,33.12
2022-08-02T10:58:47.695Z,33.19
2022-08-02T11:01:50.548Z,33.05
2022-08-02T11:04:55.746Z,33.31
2022-08-02T11:07:58.503Z,33.06
2022-08-02T11:11:54.279Z,32.95
2022-08-02T11:14:59.156Z,33.00
2022-08-02T11:18:01.611Z,33.14
2022-08-02T11:21:24.663Z,33.43
2022-08-02T11:24:28.649Z,33.51
2022-08-02T11:27:31.299Z,33.50
2022-08-02T11:30:34.022Z,33.08
2022-08-02T11:33:37.286Z,32.38
2022-08-02T11:36:51.030Z,32.79
2022-08-02T11:39:53.682Z,32.69
2022-08-02T11:42:55.998Z,33.06
2022-08-02T11:46:02.951Z,33.20
2022-08-02T11:49:18.186Z,33.14
2022-08-02T11:52:33.346Z,32.90
2022-08-02T11:56:02.815Z,32.73
2022-08-02T11:59:26.846Z,32.93
2022-08-02T12:02:31.650Z,33.12
2022-08-02T12:06:03.880Z,33.23
2022-08-02T12:09:18.653Z,32.95
2022-08-02T12:12:21.966Z,32.83
2022-08-02T12:15:31.587Z,32.67
2022-08-02T12:18:52.992Z,32.38
2022-08-02T12:22:17.638Z,32.40
2022-08-02T12:25:33.907Z,32.86
2022-08-02T12:28:40.166Z,32.89
2022-08-02T12:31:55.628Z,32.93
2022-08-02T12:35:09.038Z,32.83
2022-08-02T12:38:13.167Z,32.85
2022-08-02T12:41:30.994Z,33.08
2022-08-02T12:44:38.145Z,33.19
2022-08-02T12:47:49.514Z,32.55
2022-08-02T12:50:52.227Z,32.18
2022-08-02T12:54:10.481Z,31.91
2022-08-02T12:57:15.000Z,31.75
2022-08-02T13:00:29.662Z,31.74
2022-08-02T13:04:10.124Z,32.15
2022-08-02T13:06:54.751Z,32.65
2022-08-02T13:10:02.860Z,33.12
2022-08-02T13:13:06.093Z,32.97
2022-08-02T13:16:10.577Z,33.02
2022-08-02T13:19:16.725Z,32.99
2022-08-02T13:22:19.355Z,32.70
2022-08-02T13:25:23.066Z,33.05
2022-08-02T13:28:26.058Z,33.32
2022-08-02T13:31:36.657Z,33.48
2022-08-02T13:34:40.173Z,33.84
2022-08-02T13:37:42.664Z,33.82
2022-08-02T13:41:05.189Z,33.86
2022-08-02T13:44:11.155Z,33.61
2022-08-02T13:47:14.006Z,33.22
2022-08-02T13:50:16.897Z,32.93
2022-08-02T13:53:19.913Z,32.45
2022-08-02T13:56:35.597Z,32.25
2022-08-02T13:59:56.419Z,31.99
2022-08-02T14:03:01.074Z,31.60
2022-08-02T14:06:03.966Z,31.52
2022-08-02T14:09:06.408Z,31.53
2022-08-02T14:12:10.591Z,31.93
2022-08-02T14:15:13.316Z,32.27
2022-08-02T14:18:16.494Z,32.56
2022-08-02T14:21:18.809Z,32.76
2022-08-02T14:24:21.757Z,32.88
2022-08-02T14:27:24.581Z,32.81
2022-08-02T14:30:27.443Z,32.94
2022-08-02T14:33:29.814Z,33.05
2022-08-02T14:36:32.609Z,33.05
2022-08-02T14:39:43.386Z,33.08
2022-08-02T14:42:57.885Z,33.12
2022-08-02T14:46:00.346Z,33.15
2022-08-02T14:49:05.014Z,33.15
2022-08-02T14:52:07.943Z,32.93
2022-08-02T14:55:14.174Z,32.91
2022-08-02T14:58:19.433Z,32.98
2022-08-02T15:01:26.020Z,32.96
2022-08-02T15:04:29.167Z,33.09
2022-08-02T15:07:45.277Z,33.15
2022-08-02T15:10:50.940Z,33.01
2022-08-02T15:13:53.593Z,33.01
2022-08-02T15:16:58.526Z,32.88
2022-08-02T15:20:24.465Z,32.83
2022-08-02T15:23:25.196Z,32.88
2022-08-02T15:26:40.268Z,32.83
2022-08-02T15:29:44.535Z,32.83
2022-08-02T15:32:53.221Z,32.81
2022-08-02T15:35:56.122Z,32.80
2022-08-02T15:38:58.833Z,32.75
2022-08-02T15:42:01.312Z,32.71
2022-08-02T15:45:04.222Z,32.50
2022-08-02T15:48:07.945Z,32.47
2022-08-02T15:51:10.825Z,32.52
2022-08-02T15:54:13.182Z,32.56
2022-08-02T15:57:15.780Z,32.57
2022-08-02T16:00:19.210Z,32.53
2022-08-02T16:03:22.235Z,32.43
2022-08-02T16:06:25.312Z,32.35
2022-08-02T16:09:28.035Z,32.16
2022-08-02T16:12:32.433Z,32.07
2022-08-02T16:15:35.766Z,32.14
2022-08-02T16:18:38.139Z,32.17
2022-08-02T16:21:40.940Z,32.09
2022-08-02T16:24:43.316Z,32.03
2022-08-02T16:27:57.844Z,31.92
2022-08-02T16:31:11.252Z,31.93
2022-08-02T16:34:14.823Z,31.88
2022-08-02T16:37:17.206Z,31.82
2022-08-02T16:40:24.684Z,31.77
2022-08-02T16:43:27.778Z,31.71
2022-08-02T16:46:32.363Z,31.62
2022-08-02T16:50:04.442Z,31.61
2022-08-02T16:52:58.243Z,31.53
2022-08-02T16:56:00.929Z,31.42
2022-08-02T16:59:03.903Z,31.27
2022-08-02T17:02:15.284Z,31.28
2022-08-02T17:05:21.419Z,31.18
2022-08-02T17:08:23.895Z,31.16
2022-08-02T17:11:37.595Z,30.98
2022-08-02T17:14:55.536Z,30.94
2022-08-02T17:17:58.673Z,30.98
2022-08-02T17:21:04.708Z,30.83
2022-08-02T17:24:08.671Z,30.76
2022-08-02T17:27:11.683Z,30.73
2022-08-02T17:30:15.580Z,30.67
2022-08-02T17:33:18.151Z,30.60
2022-08-02T17:36:20.828Z,30.50
2022-08-02T17:39:23.122Z,30.35
2022-08-02T17:42:26.240Z,30.26
2022-08-02T17:46:01.049Z,30.21
2022-08-02T17:49:11.172Z,30.03
2022-08-02T17:52:51.812Z,29.85
2022-08-02T17:55:42.287Z,29.74
2022-08-02T17:58:53.671Z,29.75
2022-08-02T18:02:01.264Z,29.62
2022-08-02T18:05:11.667Z,29.48
2022-08-02T18:08:16.152Z,29.38
2022-08-02T18:11:51.756Z,29.39
2022-08-02T18:14:46.137Z,29.25
2022-08-02T18:17:52.111Z,29.06
2022-08-02T18:20:58.631Z,28.95
2022-08-02T18:24:19.278Z,28.83
2022-08-02T18:27:26.402Z,28.84
2022-08-02T18:30:29.289Z,28.72
2022-08-02T18:33:57.502Z,28.71
2022-08-02T18:36:54.734Z,28.69
2022-08-02T18:39:57.239Z,28.68
2022-08-02T18:42:59.754Z,28.66
2022-08-02T18:46:16.006Z,28.51
2022-08-02T18:49:19.683Z,28.43
2022-08-02T18:52:31.138Z,28.41
2022-08-02T18:56:02.946Z,28.34
2022-08-02T18:58:58.182Z,28.23
2022-08-02T19:02:00.889Z,28.15
2022-08-02T19:05:03.852Z,28.00
2022-08-02T19:08:09.802Z,27.88
2022-08-02T19:11:13.506Z,27.87
2022-08-02T19:14:24.059Z,27.81
2022-08-02T19:17:54.851Z,27.92
2022-08-02T19:20:52.622Z,27.86
2022-08-02T19:23:56.027Z,27.69
2022-08-02T19:26:58.629Z,27.53
2022-08-02T19:30:16.286Z,27.43
2022-08-02T19:33:24.796Z,27.33
2022-08-02T19:36:27.624Z,27.19
2022-08-02T19:39:30.703Z,27.12
2022-08-02T19:42:33.194Z,27.25
2022-08-02T19:45:57.129Z,27.29
2022-08-02T19:49:01.247Z,27.24
2022-08-02T19:52:21.211Z,27.08
2022-08-02T19:56:01.623Z,26.97
2022-08-02T19:58:47.022Z,26.85
2022-08-02T20:01:50.511Z,26.73
2022-08-02T20:04:53.442Z,26.58
2022-08-02T20:07:58.162Z,26.47
2022-08-02T20:11:00.918Z,26.39
2022-08-02T20:14:05.758Z,26.33
2022-08-02T20:17:11.491Z,26.21
2022-08-02T20:20:13.938Z,26.12
2022-08-02T20:23:33.329Z,26.12
2022-08-02T20:26:39.617Z,26.18
2022-08-02T20:29:50.173Z,26.17
2022-08-02T20:32:58.850Z,26.08
2022-08-02T20:36:05.683Z,25.99
2022-08-02T20:39:08.071Z,25.93
2022-08-02T20:42:22.847Z,25.89
2022-08-02T20:45:27.242Z,25.87
2022-08-02T20:48:31.162Z,25.87
2022-08-02T20:51:33.988Z,25.97
2022-08-02T20:54:36.652Z,26.00
2022-08-02T20:57:48.710Z,26.06
2022-08-02T21:01:01.624Z,26.00
2022-08-02T21:04:04.132Z,25.91
2022-08-02T21:07:07.157Z,25.83
2022-08-02T21:10:15.795Z,25.76
2022-08-02T21:13:23.155Z,25.68
2022-08-02T21:16:25.885Z,25.62
2022-08-02T21:19:30.060Z,25.57
2022-08-02T21:22:32.726Z,25.52
2022-08-02T21:25:42.451Z,25.51
2022-08-02T21:28:53.511Z,25.44
2022-08-02T21:31:56.638Z,25.43
2022-08-02T21:34:58.953Z,25.39
2022-08-02T21:38:01.523Z,25.36
2022-08-02T21:41:06.090Z,25.26
2022-08-02T21:44:19.193Z,25.19
2022-08-02T21:47:27.391Z,25.19
2022-08-02T21:50:30.287Z,25.15
2022-08-02T21:53:42.635Z,25.16
2022-08-02T21:56:52.795Z,25.18
2022-08-02T21:59:56.109Z,25.14
2022-08-02T22:02:59.109Z,25.06
2022-08-02T22:06:21.943Z,25.06
2022-08-02T22:09:44.276Z,24.96
2022-08-02T22:12:48.021Z,24.96
2022-08-02T22:15:50.663Z,24.91
2022-08-02T22:18:54.014Z,24.87
2022-08-02T22:21:58.929Z,24.87
2022-08-02T22:25:01.424Z,24.83
2022-08-02T22:28:39.342Z,24.80
2022-08-02T22:31:41.874Z,24.87
2022-08-02T22:34:52.025Z,24.84
2022-08-02T22:38:16.238Z,24.78
2022-08-02T22:41:17.777Z,24.78
2022-08-02T22:44:20.560Z,24.64
2022-08-02T22:47:22.893Z,24.59
2022-08-02T22:50:31.824Z,24.48
2022-08-02T22:53:35.475Z,24.38
2022-08-02T22:56:38.938Z,24.27
2022-08-02T22:59:46.966Z,24.32
2022-08-02T23:02:51.105Z,24.37
2022-08-02T23:05:53.765Z,24.44
2022-08-02T23:08:56.378Z,24.40
2022-08-02T23:11:58.680Z,24.37
2022-08-02T23:15:01.504Z,24.33
2022-08-02T23:18:22.226Z,24.30
2022-08-02T23:21:45.576Z,24.23
2022-08-02T23:24:48.403Z,24.26
2022-08-02T23:27:51.404Z,24.13
2022-08-02T23:30:53.862Z,24.05
2022-08-02T23:34:03.989Z,24.03
2022-08-02T23:37:07.152Z,23.98
2022-08-02T23:40:10.225Z,24.02
2022-08-02T23:43:14.955Z,23.90
2022-08-02T23:46:17.948Z,23.80
2022-08-02T23:49:21.670Z,23.79
2022-08-02T23:52:24.874Z,23.77
2022-08-02T23:55:27.230Z,23.76
2022-08-02T23:58:32.910Z,23.75
